Time;durP1;ratioP1;P1;durP2;ratioP2;P2;SDS_P1;SDS_P2;PMS_P1;PMS_P2;Temp;Humidity;BMP_temperature;BMP_pressure;BME280_temperature;BME280_humidity;BME280_pressure;Samples;Min_cycle;Max_cycle;Signal;HPM_P1;HPM_P2
2022/01/04 00:00:37;;;;;;;0.30;0.30;;;;;;;;;;5061441;28;20639;-53
2022/01/04 00:03:06;;;;;;;0.60;0.40;;;;;;;;;;5061920;28;20201;-53
2022/01/04 00:05:34;;;;;;;0.25;0.22;;;;;;;;;;5059562;28;20205;-53
2022/01/04 00:08:01;;;;;;;0.77;0.40;;;;;;;;;;5058747;28;20212;-53
2022/01/04 00:10:29;;;;;;;0.40;0.40;;;;;;;;;;5059202;28;20216;-53
2022/01/04 00:15:43;;;;;;;0.70;0.30;;;;;;;;;;5058214;28;20200;-53
2022/01/04 00:18:12;;;;;;;0.60;0.43;;;;;;;;;;5058644;28;20204;-53
2022/01/04 00:20:40;;;;;;;0.50;0.35;;;;;;;;;;5058858;28;20197;-53
2022/01/04 00:23:08;;;;;;;0.43;0.40;;;;;;;;;;5058424;28;20208;-53
2022/01/04 00:25:35;;;;;;;0.57;0.40;;;;;;;;;;5058505;28;20219;-53
2022/01/04 00:28:06;;;;;;;0.50;0.35;;;;;;;;;;5058763;28;20205;-53
2022/01/04 00:30:34;;;;;;;0.40;0.30;;;;;;;;;;5058441;28;20205;-53
2022/01/04 00:33:01;;;;;;;0.50;0.30;;;;;;;;;;5058861;28;20507;-53
2022/01/04 00:35:30;;;;;;;0.70;0.40;;;;;;;;;;5057484;28;20240;-53
2022/01/04 00:37:58;;;;;;;0.40;0.30;;;;;;;;;;5058437;28;20205;-53
2022/01/04 00:40:25;;;;;;;0.43;0.32;;;;;;;;;;5058095;28;20266;-53
2022/01/04 00:42:55;;;;;;;0.60;0.40;;;;;;;;;;5058047;28;20208;-54
2022/01/04 00:45:22;;;;;;;1.15;0.52;;;;;;;;;;5057782;28;20225;-53
2022/01/04 00:50:34;;;;;;;0.32;0.30;;;;;;;;;;5056816;28;20258;-53
2022/01/04 00:53:02;;;;;;;0.40;0.40;;;;;;;;;;5058173;28;20643;-53
2022/01/04 00:55:29;;;;;;;0.30;0.30;;;;;;;;;;5058467;28;20585;-53
2022/01/04 00:57:57;;;;;;;0.40;0.32;;;;;;;;;;5057709;28;20487;-53
2022/01/04 01:00:25;;;;;;;0.30;0.30;;;;;;;;;;5057582;28;20212;-53
2022/01/04 01:02:53;;;;;;;0.43;0.40;;;;;;;;;;5058123;28;20201;-53
2022/01/04 01:05:22;;;;;;;1.00;0.35;;;;;;;;;;5058275;28;20209;-53
2022/01/04 01:07:51;;;;;;;0.88;0.40;;;;;;;;;;5058187;28;20651;-53
2022/01/04 01:10:37;;;;;;;0.50;0.50;;;;;;;;;;5058126;28;20204;-53
2022/01/04 01:13:05;;;;;;;0.95;0.45;;;;;;;;;;5057826;28;20229;-53
2022/01/04 01:15:33;;;;;;;0.38;0.30;;;;;;;;;;5057827;28;20205;-53
2022/01/04 01:18:00;;;;;;;1.13;0.45;;;;;;;;;;5057854;28;20201;-53
2022/01/04 01:20:27;;;;;;;1.35;0.50;;;;;;;;;;5058054;28;20279;-53
2022/01/04 01:22:56;;;;;;;0.57;0.43;;;;;;;;;;5057541;28;20201;-53
2022/01/04 01:25:23;;;;;;;0.40;0.38;;;;;;;;;;5057931;28;20216;-53
2022/01/04 01:27:51;;;;;;;0.60;0.40;;;;;;;;;;5057748;28;20216;-53
2022/01/04 01:30:18;;;;;;;0.40;0.38;;;;;;;;;;5057836;28;20205;-53
2022/01/04 01:32:46;;;;;;;0.50;0.40;;;;;;;;;;5057763;28;20497;-53
2022/01/04 01:35:13;;;;;;;0.60;0.50;;;;;;;;;;5057558;28;20252;-53
2022/01/04 01:37:41;;;;;;;0.75;0.40;;;;;;;;;;5057771;28;20197;-53
2022/01/04 01:40:10;;;;;;;0.68;0.50;;;;;;;;;;5057236;28;20215;-53
2022/01/04 01:42:37;;;;;;;0.65;0.40;;;;;;;;;;5057144;28;20200;-53
2022/01/04 01:45:06;;;;;;;0.40;0.40;;;;;;;;;;5056985;28;20209;-53
2022/01/04 01:47:33;;;;;;;0.43;0.40;;;;;;;;;;5057279;28;20216;-53
2022/01/04 01:50:00;;;;;;;0.52;0.30;;;;;;;;;;5057794;28;20604;-53
2022/01/04 01:52:28;;;;;;;0.40;0.40;;;;;;;;;;5057474;28;20212;-53
2022/01/04 01:54:55;;;;;;;0.55;0.40;;;;;;;;;;5057249;28;20205;-53
2022/01/04 01:57:24;;;;;;;0.50;0.40;;;;;;;;;;5057420;28;20497;-53
2022/01/04 01:59:52;;;;;;;0.40;0.38;;;;;;;;;;5057171;28;20557;-54
2022/01/04 02:02:19;;;;;;;0.43;0.40;;;;;;;;;;5056942;28;20211;-53
2022/01/04 02:04:46;;;;;;;0.68;0.40;;;;;;;;;;5057060;28;20219;-53
2022/01/04 02:07:14;;;;;;;0.40;0.40;;;;;;;;;;5056783;28;20208;-53
2022/01/04 02:09:45;;;;;;;0.30;0.30;;;;;;;;;;5056709;28;20204;-53
2022/01/04 02:12:13;;;;;;;0.40;0.40;;;;;;;;;;5055918;28;20664;-53
2022/01/04 02:14:48;;;;;;;0.50;0.40;;;;;;;;;;5056639;28;20225;-53
2022/01/04 02:17:15;;;;;;;0.50;0.50;;;;;;;;;;5057039;28;20208;-53
2022/01/04 02:19:44;;;;;;;0.85;0.47;;;;;;;;;;5057215;28;20215;-53
2022/01/04 02:22:11;;;;;;;0.63;0.50;;;;;;;;;;5056839;28;20631;-53
2022/01/04 02:24:40;;;;;;;0.50;0.30;;;;;;;;;;5057176;28;20217;-53
2022/01/04 02:27:07;;;;;;;1.10;0.35;;;;;;;;;;5057154;28;20240;-53
2022/01/04 02:29:35;;;;;;;0.68;0.68;;;;;;;;;;5057204;28;20215;-53
2022/01/04 02:32:02;;;;;;;0.40;0.30;;;;;;;;;;5057113;28;20205;-54
2022/01/04 02:34:29;;;;;;;0.70;0.40;;;;;;;;;;5056702;28;20225;-53
2022/01/04 02:36:59;;;;;;;0.50;0.50;;;;;;;;;;5056475;28;20485;-53
2022/01/04 02:39:27;;;;;;;0.55;0.50;;;;;;;;;;5056439;28;20208;-53
2022/01/04 02:41:54;;;;;;;0.40;0.40;;;;;;;;;;5054285;28;20193;-53
2022/01/04 02:44:21;;;;;;;0.80;0.60;;;;;;;;;;5056946;28;20216;-53
2022/01/04 02:46:49;;;;;;;0.60;0.50;;;;;;;;;;5057050;28;20490;-53
2022/01/04 02:49:16;;;;;;;0.30;0.30;;;;;;;;;;5056947;28;20224;-53
2022/01/04 02:51:43;;;;;;;0.75;0.43;;;;;;;;;;5056857;28;20213;-53
2022/01/04 02:54:12;;;;;;;0.40;0.40;;;;;;;;;;5056306;28;20236;-53
2022/01/04 02:56:40;;;;;;;0.68;0.68;;;;;;;;;;5056845;28;20205;-53
2022/01/04 02:59:07;;;;;;;0.38;0.38;;;;;;;;;;5057462;28;20231;-53
2022/01/04 03:01:34;;;;;;;0.32;0.30;;;;;;;;;;5060684;28;20205;-53
2022/01/04 03:04:02;;;;;;;0.57;0.50;;;;;;;;;;5060502;28;20585;-53
2022/01/04 03:06:29;;;;;;;0.50;0.40;;;;;;;;;;5060350;28;20201;-53
2022/01/04 03:08:57;;;;;;;0.47;0.43;;;;;;;;;;5059970;28;20205;-53
2022/01/04 03:11:25;;;;;;;0.50;0.50;;;;;;;;;;5060398;28;20213;-53
2022/01/04 03:13:53;;;;;;;0.40;0.40;;;;;;;;;;5060142;28;20235;-54
2022/01/04 03:16:20;;;;;;;0.50;0.40;;;;;;;;;;5060300;28;20280;-53
2022/01/04 03:19:03;;;;;;;0.50;0.50;;;;;;;;;;5060101;28;20212;-53
2022/01/04 03:21:30;;;;;;;0.50;0.40;;;;;;;;;;5060151;28;20205;-53
2022/01/04 03:23:58;;;;;;;0.45;0.35;;;;;;;;;;5059746;28;20205;-53
2022/01/04 03:26:27;;;;;;;0.40;0.30;;;;;;;;;;5062536;28;20225;-54
2022/01/04 03:28:54;;;;;;;0.50;0.40;;;;;;;;;;5071115;28;20635;-53
2022/01/04 03:31:21;;;;;;;0.45;0.45;;;;;;;;;;5067817;28;20216;-53
2022/01/04 03:33:49;;;;;;;0.40;0.40;;;;;;;;;;5060360;28;20221;-53
2022/01/04 03:36:20;;;;;;;0.50;0.40;;;;;;;;;;5060135;28;20248;-53
2022/01/04 03:38:49;;;;;;;0.88;0.65;;;;;;;;;;5060143;28;20212;-53
2022/01/04 03:41:16;;;;;;;0.47;0.30;;;;;;;;;;5059669;28;20489;-53
2022/01/04 03:43:45;;;;;;;0.50;0.50;;;;;;;;;;5059661;28;20204;-53
2022/01/04 03:46:13;;;;;;;0.40;0.40;;;;;;;;;;5059635;28;20209;-54
2022/01/04 03:48:41;;;;;;;0.65;0.50;;;;;;;;;;5059307;28;20205;-53
2022/01/04 03:51:08;;;;;;;0.50;0.40;;;;;;;;;;5059271;28;20215;-54
2022/01/04 03:53:36;;;;;;;0.30;0.30;;;;;;;;;;5059567;28;20224;-53
2022/01/04 03:56:04;;;;;;;0.40;0.40;;;;;;;;;;5059735;28;20205;-53
2022/01/04 03:58:31;;;;;;;0.35;0.35;;;;;;;;;;5059420;28;20212;-56
2022/01/04 04:01:01;;;;;;;0.70;0.40;;;;;;;;;;5058825;28;20249;-53
2022/01/04 04:03:28;;;;;;;0.60;0.40;;;;;;;;;;5058850;28;20201;-53
2022/01/04 04:05:55;;;;;;;0.40;0.40;;;;;;;;;;5059012;28;20213;-53
2022/01/04 04:08:22;;;;;;;0.50;0.40;;;;;;;;;;5059381;28;20212;-54
2022/01/04 04:10:50;;;;;;;0.35;0.35;;;;;;;;;;5058832;28;20205;-53
2022/01/04 04:13:17;;;;;;;0.30;0.30;;;;;;;;;;5059060;28;20224;-53
2022/01/04 04:15:45;;;;;;;0.30;0.30;;;;;;;;;;5059402;28;20212;-53
2022/01/04 04:18:16;;;;;;;0.45;0.30;;;;;;;;;;5058775;28;20204;-53
2022/01/04 04:20:43;;;;;;;0.30;0.30;;;;;;;;;;5058679;28;20204;-53
2022/01/04 04:23:11;;;;;;;0.32;0.30;;;;;;;;;;5058775;28;20205;-54
2022/01/04 04:25:38;;;;;;;0.55;0.40;;;;;;;;;;5059117;28;20230;-53
2022/01/04 04:28:06;;;;;;;0.40;0.40;;;;;;;;;;5057882;28;20209;-54
2022/01/04 04:30:34;;;;;;;0.63;0.35;;;;;;;;;;5058629;28;20219;-54
2022/01/04 04:33:01;;;;;;;0.40;0.40;;;;;;;;;;5058839;28;20205;-53
2022/01/04 04:35:30;;;;;;;0.30;0.30;;;;;;;;;;5058400;28;20233;-54
2022/01/04 04:37:58;;;;;;;0.40;0.30;;;;;;;;;;5058728;28;20212;-54
2022/01/04 04:40:26;;;;;;;0.30;0.30;;;;;;;;;;5058528;28;20601;-54
2022/01/04 04:42:53;;;;;;;0.30;0.30;;;;;;;;;;5058108;28;20208;-53
2022/01/04 04:45:20;;;;;;;0.30;0.30;;;;;;;;;;5058575;28;20239;-53
2022/01/04 04:47:48;;;;;;;0.20;0.20;;;;;;;;;;5058032;28;20205;-53
2022/01/04 04:50:15;;;;;;;0.30;0.30;;;;;;;;;;5057553;28;20580;-54
2022/01/04 04:52:44;;;;;;;0.65;0.40;;;;;;;;;;5057913;28;20205;-54
2022/01/04 04:55:12;;;;;;;0.80;0.40;;;;;;;;;;5057353;28;20217;-53
2022/01/04 04:57:39;;;;;;;0.40;0.22;;;;;;;;;;5057774;28;20212;-54
2022/01/04 05:00:08;;;;;;;0.38;0.30;;;;;;;;;;5057669;28;20312;-53
2022/01/04 05:02:36;;;;;;;0.20;0.20;;;;;;;;;;5057591;28;20490;-53
2022/01/04 05:05:03;;;;;;;0.45;0.40;;;;;;;;;;5057464;28;20624;-53
2022/01/04 05:07:31;;;;;;;0.30;0.30;;;;;;;;;;5057059;28;20204;-53
2022/01/04 05:10:01;;;;;;;0.35;0.30;;;;;;;;;;5057866;28;20214;-53
2022/01/04 05:12:28;;;;;;;0.40;0.40;;;;;;;;;;5057429;28;20205;-53
2022/01/04 05:14:55;;;;;;;0.40;0.40;;;;;;;;;;5057029;28;20229;-54
2022/01/04 05:17:23;;;;;;;0.40;0.22;;;;;;;;;;5057311;28;20200;-53
2022/01/04 05:19:50;;;;;;;0.50;0.45;;;;;;;;;;5057352;28;20201;-54
2022/01/04 05:22:19;;;;;;;0.30;0.30;;;;;;;;;;5056047;28;20205;-53
2022/01/04 05:24:46;;;;;;;0.30;0.30;;;;;;;;;;5057468;28;20251;-53
2022/01/04 05:27:15;;;;;;;0.30;0.30;;;;;;;;;;5056813;28;20588;-54
2022/01/04 05:29:42;;;;;;;0.40;0.30;;;;;;;;;;5057127;28;20204;-53
2022/01/04 05:32:10;;;;;;;0.40;0.40;;;;;;;;;;5056940;28;20216;-54
2022/01/04 05:34:38;;;;;;;0.30;0.30;;;;;;;;;;5057203;28;20228;-54
2022/01/04 05:37:05;;;;;;;0.40;0.40;;;;;;;;;;5056959;28;20503;-54
2022/01/04 05:39:32;;;;;;;0.38;0.35;;;;;;;;;;5056269;28;20247;-53
2022/01/04 05:42:00;;;;;;;0.85;0.50;;;;;;;;;;5055992;28;20624;-54
2022/01/04 05:44:29;;;;;;;0.32;0.32;;;;;;;;;;5055643;28;20503;-53
2022/01/04 05:46:56;;;;;;;0.40;0.40;;;;;;;;;;5055652;28;20236;-53
2022/01/04 05:49:24;;;;;;;0.30;0.30;;;;;;;;;;5055919;28;20201;-53
2022/01/04 05:51:51;;;;;;;0.40;0.40;;;;;;;;;;5055659;28;20769;-53
2022/01/04 05:54:18;;;;;;;0.30;0.30;;;;;;;;;;5055561;28;20239;-53
2022/01/04 05:56:45;;;;;;;0.40;0.30;;;;;;;;;;5055490;28;20228;-53
2022/01/04 05:59:13;;;;;;;0.43;0.40;;;;;;;;;;5055475;28;20215;-53
2022/01/04 06:01:41;;;;;;;0.30;0.30;;;;;;;;;;5055338;28;20494;-53
2022/01/04 06:04:10;;;;;;;0.30;0.20;;;;;;;;;;5054662;28;20192;-53
2022/01/04 06:06:39;;;;;;;0.40;0.40;;;;;;;;;;5054616;28;20216;-53
2022/01/04 06:09:08;;;;;;;0.40;0.30;;;;;;;;;;5054964;28;20304;-54
2022/01/04 06:11:56;;;;;;;0.40;0.30;;;;;;;;;;5054250;28;20300;-53
2022/01/04 06:17:10;;;;;;;0.30;0.30;;;;;;;;;;5053972;28;20227;-53
2022/01/04 06:19:38;;;;;;;0.30;0.30;;;;;;;;;;5054273;28;20205;-53
2022/01/04 06:22:06;;;;;;;0.50;0.38;;;;;;;;;;5054420;28;20213;-53
2022/01/04 06:24:33;;;;;;;0.30;0.30;;;;;;;;;;5054903;28;20208;-53
2022/01/04 06:27:01;;;;;;;0.20;0.20;;;;;;;;;;5053768;28;20231;-54
2022/01/04 06:29:28;;;;;;;0.40;0.30;;;;;;;;;;5054210;28;20205;-53
2022/01/04 06:31:56;;;;;;;0.40;0.40;;;;;;;;;;5053897;28;20204;-53
2022/01/04 06:34:25;;;;;;;0.30;0.30;;;;;;;;;;5056435;28;20745;-53
2022/01/04 06:36:52;;;;;;;0.20;0.20;;;;;;;;;;5058058;28;20216;-53
2022/01/04 06:39:20;;;;;;;0.30;0.30;;;;;;;;;;5058075;28;20204;-53
2022/01/04 06:41:47;;;;;;;0.30;0.20;;;;;;;;;;5058207;28;20311;-54
2022/01/04 06:44:14;;;;;;;0.30;0.30;;;;;;;;;;5057131;28;20201;-54
2022/01/04 06:46:45;;;;;;;0.40;0.30;;;;;;;;;;5057815;28;20212;-53
2022/01/04 06:49:13;;;;;;;0.30;0.30;;;;;;;;;;5057780;28;20209;-53
2022/01/04 06:51:43;;;;;;;0.30;0.30;;;;;;;;;;5058348;28;20212;-53
2022/01/04 06:54:11;;;;;;;0.30;0.30;;;;;;;;;;5058365;28;20229;-53
2022/01/04 06:56:39;;;;;;;0.30;0.30;;;;;;;;;;5058377;28;20512;-53
2022/01/04 06:59:06;;;;;;;0.30;0.30;;;;;;;;;;5067922;28;20205;-53
2022/01/04 07:01:34;;;;;;;0.30;0.30;;;;;;;;;;5069688;28;20205;-54
2022/01/04 07:04:01;;;;;;;0.40;0.40;;;;;;;;;;5061098;28;20196;-53
2022/01/04 07:06:29;;;;;;;0.32;0.20;;;;;;;;;;5059442;28;20633;-53
2022/01/04 07:08:57;;;;;;;0.70;0.30;;;;;;;;;;5058585;28;20204;-54
2022/01/04 07:11:25;;;;;;;0.38;0.30;;;;;;;;;;5058616;28;20212;-54
2022/01/04 07:13:52;;;;;;;0.40;0.25;;;;;;;;;;5057827;28;20216;-53
2022/01/04 07:16:20;;;;;;;0.20;0.20;;;;;;;;;;5057533;28;20545;-53
2022/01/04 07:18:48;;;;;;;0.17;0.17;;;;;;;;;;5058559;28;20220;-54
2022/01/04 07:21:16;;;;;;;0.28;0.28;;;;;;;;;;5058408;28;20738;-53
2022/01/04 07:23:44;;;;;;;0.30;0.30;;;;;;;;;;5057842;28;20216;-53
2022/01/04 07:26:14;;;;;;;0.35;0.30;;;;;;;;;;5057434;28;20215;-53
2022/01/04 07:28:42;;;;;;;0.30;0.30;;;;;;;;;;5058387;28;20204;-53
2022/01/04 07:31:10;;;;;;;0.20;0.20;;;;;;;;;;5057868;28;20209;-54
2022/01/04 07:33:37;;;;;;;0.20;0.20;;;;;;;;;;5058055;28;20255;-54
2022/01/04 07:36:06;;;;;;;0.30;0.30;;;;;;;;;;5057968;28;20505;-53
2022/01/04 07:38:33;;;;;;;0.20;0.20;;;;;;;;;;5057553;28;20255;-53
2022/01/04 07:41:01;;;;;;;0.25;0.25;;;;;;;;;;5058070;28;20212;-53
2022/01/04 07:43:29;;;;;;;0.22;0.22;;;;;;;;;;5057573;28;20220;-53
2022/01/04 07:45:57;;;;;;;0.20;0.20;;;;;;;;;;5057116;28;20212;-53
2022/01/04 07:48:24;;;;;;;0.30;0.30;;;;;;;;;;5057772;28;20220;-54
2022/01/04 07:50:55;;;;;;;0.25;0.25;;;;;;;;;;5057316;28;20215;-53
2022/01/04 07:53:22;;;;;;;0.30;0.30;;;;;;;;;;5057714;28;20225;-53
2022/01/04 07:55:50;;;;;;;0.30;0.30;;;;;;;;;;5057169;28;20235;-53
2022/01/04 07:58:17;;;;;;;0.45;0.38;;;;;;;;;;5058364;28;20215;-53
2022/01/04 08:00:46;;;;;;;0.20;0.20;;;;;;;;;;5058283;28;20216;-53
2022/01/04 08:03:13;;;;;;;0.20;0.20;;;;;;;;;;5057639;28;20585;-53
2022/01/04 08:05:41;;;;;;;0.30;0.30;;;;;;;;;;5057557;28;20585;-53
2022/01/04 08:08:09;;;;;;;0.40;0.20;;;;;;;;;;5057074;28;20274;-53
2022/01/04 08:10:36;;;;;;;0.30;0.30;;;;;;;;;;5057383;28;20205;-53
2022/01/04 08:13:04;;;;;;;0.20;0.20;;;;;;;;;;5057649;28;20240;-53
2022/01/04 08:15:31;;;;;;;0.30;0.30;;;;;;;;;;5057483;28;20236;-53
2022/01/04 08:18:00;;;;;;;0.20;0.20;;;;;;;;;;5057295;28;20208;-53
2022/01/04 08:20:28;;;;;;;0.30;0.22;;;;;;;;;;5057354;28;20292;-53
2022/01/04 08:22:57;;;;;;;0.63;0.32;;;;;;;;;;5057141;28;20217;-53
2022/01/04 08:25:24;;;;;;;1.05;0.40;;;;;;;;;;5056748;28;20216;-53
2022/01/04 08:27:53;;;;;;;0.55;0.30;;;;;;;;;;5056849;28;20197;-53
2022/01/04 08:30:20;;;;;;;0.20;0.20;;;;;;;;;;5057131;28;20278;-54
2022/01/04 08:32:50;;;;;;;0.40;0.30;;;;;;;;;;5058981;28;20220;-53
2022/01/04 08:35:19;;;;;;;0.65;0.30;;;;;;;;;;5055805;28;20290;-53
2022/01/04 08:37:46;;;;;;;0.30;0.30;;;;;;;;;;5054847;28;20201;-54
2022/01/04 08:40:14;;;;;;;1.65;0.40;;;;;;;;;;5056508;28;20205;-53
2022/01/04 08:42:41;;;;;;;1.15;0.30;;;;;;;;;;5056838;28;20467;-53
2022/01/04 08:45:09;;;;;;;1.55;0.30;;;;;;;;;;5056166;28;20490;-53
2022/01/04 08:47:37;;;;;;;1.77;0.30;;;;;;;;;;5056186;28;20307;-53
2022/01/04 08:50:05;;;;;;;0.30;0.30;;;;;;;;;;5055169;28;20286;-53
2022/01/04 08:52:34;;;;;;;0.55;0.40;;;;;;;;;;5055957;28;20197;-52
2022/01/04 08:55:01;;;;;;;0.28;0.20;;;;;;;;;;5055922;28;20221;-52
2022/01/04 08:57:29;;;;;;;0.50;0.30;;;;;;;;;;5054548;28;20216;-53
2022/01/04 08:59:57;;;;;;;1.00;0.30;;;;;;;;;;5015883;28;20216;-53
2022/01/04 09:02:25;;;;;;;0.30;0.30;;;;;;;;;;5016423;28;20216;-53
2022/01/04 09:04:53;;;;;;;0.70;0.40;;;;;;;;;;5016834;28;20202;-53
2022/01/04 09:07:20;;;;;;;1.50;0.25;;;;;;;;;;5015975;28;20213;-53
2022/01/04 09:09:49;;;;;;;0.68;0.30;;;;;;;;;;5015940;28;20209;-53
2022/01/04 09:12:18;;;;;;;1.42;0.30;;;;;;;;;;5015816;28;20238;-53
2022/01/04 09:14:56;;;;;;;0.35;0.20;;;;;;;;;;5016323;28;20265;-52
2022/01/04 09:20:10;;;;;;;0.50;0.43;;;;;;;;;;5015451;28;20578;-53
2022/01/04 09:22:38;;;;;;;0.95;0.35;;;;;;;;;;5015717;28;20206;-52
2022/01/04 09:25:07;;;;;;;0.55;0.30;;;;;;;;;;5016852;28;20209;-53
2022/01/04 09:27:35;;;;;;;0.32;0.20;;;;;;;;;;5053338;28;20200;-53
2022/01/04 09:30:04;;;;;;;0.90;0.40;;;;;;;;;;5055939;28;20216;-53
2022/01/04 09:32:32;;;;;;;13.13;11.80;;;;;;;;;;5055538;28;20201;-53
2022/01/04 09:35:00;;;;;;;32.20;28.98;;;;;;;;;;5054280;28;20510;-54
2022/01/04 09:37:27;;;;;;;25.10;22.50;;;;;;;;;;5055430;28;20209;-53
2022/01/04 09:39:54;;;;;;;21.88;19.67;;;;;;;;;;5055010;28;20208;-53
2022/01/04 09:42:24;;;;;;;21.42;19.15;;;;;;;;;;5055631;28;20205;-53
2022/01/04 09:44:51;;;;;;;22.15;19.08;;;;;;;;;;5055133;28;20224;-53
2022/01/04 09:47:18;;;;;;;20.27;18.38;;;;;;;;;;5055119;28;20211;-53
2022/01/04 09:49:46;;;;;;;19.70;17.70;;;;;;;;;;5055181;28;20577;-53
2022/01/04 09:52:15;;;;;;;18.73;16.75;;;;;;;;;;5055409;28;20201;-53
2022/01/04 09:54:42;;;;;;;17.83;16.17;;;;;;;;;;5054244;28;20219;-53
2022/01/04 09:57:10;;;;;;;17.35;15.65;;;;;;;;;;5054465;28;20220;-53
2022/01/04 09:59:38;;;;;;;17.65;15.68;;;;;;;;;;5055156;28;20205;-53
2022/01/04 10:02:24;;;;;;;17.55;15.75;;;;;;;;;;5054738;28;20212;-53
2022/01/04 10:04:52;;;;;;;15.50;14.00;;;;;;;;;;5054793;28;20638;-53
2022/01/04 10:07:22;;;;;;;15.55;14.00;;;;;;;;;;5053737;28;20212;-53
2022/01/04 10:09:52;;;;;;;15.35;13.23;;;;;;;;;;5053941;28;20228;-53
2022/01/04 10:12:21;;;;;;;14.48;13.07;;;;;;;;;;5054179;28;20208;-53
2022/01/04 10:14:50;;;;;;;14.55;12.85;;;;;;;;;;5053583;28;20546;-53
2022/01/04 10:17:21;;;;;;;14.25;12.75;;;;;;;;;;5054653;28;20616;-53
2022/01/04 10:19:49;;;;;;;13.57;12.18;;;;;;;;;;5054033;28;20220;-53
2022/01/04 10:22:22;;;;;;;12.43;11.02;;;;;;;;;;5053953;28;20213;-53
2022/01/04 10:24:50;;;;;;;12.10;10.90;;;;;;;;;;5054260;28;20251;-53
2022/01/04 10:27:38;;;;;;;11.68;10.48;;;;;;;;;;5054985;28;20219;-53
2022/01/04 10:30:11;;;;;;;11.65;10.55;;;;;;;;;;5052449;28;20205;-54
2022/01/04 10:32:44;;;;;;;10.93;9.93;;;;;;;;;;5067521;28;20212;-53
2022/01/04 10:35:11;;;;;;;11.20;10.10;;;;;;;;;;5062901;28;20240;-53
2022/01/04 10:37:40;;;;;;;10.43;9.43;;;;;;;;;;5055346;28;20584;-53
2022/01/04 10:40:08;;;;;;;10.23;9.27;;;;;;;;;;5055186;28;20213;-53
2022/01/04 10:42:36;;;;;;;9.15;8.35;;;;;;;;;;5055273;28;20208;-53
2022/01/04 10:45:18;;;;;;;9.23;8.13;;;;;;;;;;5055470;28;20201;-53
2022/01/04 10:47:47;;;;;;;9.18;8.27;;;;;;;;;;5053112;28;20201;-52
2022/01/04 10:50:14;;;;;;;9.05;8.02;;;;;;;;;;5053537;28;20197;-53
2022/01/04 10:52:42;;;;;;;8.95;8.05;;;;;;;;;;5055535;28;20263;-52
2022/01/04 10:55:13;;;;;;;9.45;7.65;;;;;;;;;;5054365;28;20216;-53
2022/01/04 10:57:41;;;;;;;8.98;7.25;;;;;;;;;;5055248;28;20205;-53
2022/01/04 11:00:15;;;;;;;8.45;7.18;;;;;;;;;;5054897;28;20205;-53
2022/01/04 11:02:42;;;;;;;8.65;7.82;;;;;;;;;;5054283;28;20205;-53
2022/01/04 11:05:14;;;;;;;8.05;7.28;;;;;;;;;;5054408;28;20205;-53
2022/01/04 11:07:57;;;;;;;7.10;6.43;;;;;;;;;;5053958;28;20201;-52
2022/01/04 11:10:25;;;;;;;7.55;6.70;;;;;;;;;;5054899;28;20228;-52
2022/01/04 11:12:53;;;;;;;6.70;6.10;;;;;;;;;;5055317;28;20490;-52
2022/01/04 11:15:20;;;;;;;6.90;6.18;;;;;;;;;;5053985;28;20197;-52
2022/01/04 11:17:48;;;;;;;6.35;5.75;;;;;;;;;;5053799;28;20628;-53
2022/01/04 11:20:17;;;;;;;6.45;5.75;;;;;;;;;;5054785;28;20224;-53
2022/01/04 11:22:46;;;;;;;6.75;6.15;;;;;;;;;;5058498;28;20227;-52
2022/01/04 11:25:15;;;;;;;6.43;5.78;;;;;;;;;;5057756;28;20212;-52
2022/01/04 11:27:43;;;;;;;5.65;5.15;;;;;;;;;;5057633;28;20525;-53
2022/01/04 11:30:15;;;;;;;5.63;5.13;;;;;;;;;;5057755;28;20219;-53
2022/01/04 11:32:44;;;;;;;6.97;5.38;;;;;;;;;;5057271;28;20218;-53
2022/01/04 11:35:16;;;;;;;6.47;5.45;;;;;;;;;;5056428;28;20320;-53
2022/01/04 11:37:51;;;;;;;5.65;4.80;;;;;;;;;;5057924;28;20201;-53
2022/01/04 11:40:26;;;;;;;4.68;4.28;;;;;;;;;;5056036;28;20205;-53
2022/01/04 11:42:53;;;;;;;6.03;4.47;;;;;;;;;;5056292;28;20619;-53
2022/01/04 11:45:36;;;;;;;5.75;4.90;;;;;;;;;;5056675;28;20205;-53
2022/01/04 11:48:03;;;;;;;5.75;4.18;;;;;;;;;;5056958;28;20208;-60
2022/01/04 11:50:36;;;;;;;5.28;4.78;;;;;;;;;;5057718;28;20216;-53
2022/01/04 11:53:10;;;;;;;4.53;4.13;;;;;;;;;;5057244;28;20212;-53
2022/01/04 11:55:38;;;;;;;4.50;4.10;;;;;;;;;;5057212;28;20211;-53
2022/01/04 11:58:08;;;;;;;4.35;3.95;;;;;;;;;;5056695;28;20231;-53
2022/01/04 12:00:37;;;;;;;4.57;4.18;;;;;;;;;;5056447;28;20503;-53
2022/01/04 12:03:06;;;;;;;4.63;3.85;;;;;;;;;;5057049;28;20212;-53
2022/01/04 12:05:33;;;;;;;4.85;4.15;;;;;;;;;;5056634;28;20208;-53
2022/01/04 12:08:03;;;;;;;3.90;3.60;;;;;;;;;;5056672;28;20205;-53
2022/01/04 12:10:36;;;;;;;4.65;3.58;;;;;;;;;;5055901;28;20200;-53
2022/01/04 12:13:05;;;;;;;4.20;3.80;;;;;;;;;;5056311;28;20509;-53
2022/01/04 12:15:48;;;;;;;4.25;3.70;;;;;;;;;;5055546;28;20576;-53
2022/01/04 12:18:34;;;;;;;3.70;3.40;;;;;;;;;;5055609;28;20228;-53
2022/01/04 12:21:03;;;;;;;3.50;3.20;;;;;;;;;;5055481;28;20248;-53
2022/01/04 12:23:46;;;;;;;3.97;3.50;;;;;;;;;;5056025;28;20205;-53
2022/01/04 12:26:24;;;;;;;3.72;3.42;;;;;;;;;;5055814;28;20216;-53
2022/01/04 12:29:10;;;;;;;3.60;2.92;;;;;;;;;;5055042;28;20205;-53
2022/01/04 12:31:38;;;;;;;4.30;3.30;;;;;;;;;;5055083;28;20200;-53
2022/01/04 12:34:07;;;;;;;3.30;3.00;;;;;;;;;;5056204;28;20200;-53
2022/01/04 12:36:36;;;;;;;4.05;3.55;;;;;;;;;;5053970;28;20790;-53
2022/01/04 12:39:04;;;;;;;2.72;2.53;;;;;;;;;;5055055;28;20209;-53
2022/01/04 12:41:35;;;;;;;2.83;2.63;;;;;;;;;;5055303;28;20211;-53
2022/01/04 12:44:03;;;;;;;3.25;2.95;;;;;;;;;;5054775;28;20205;-53
2022/01/04 12:46:31;;;;;;;3.00;2.70;;;;;;;;;;5055335;28;20196;-53
2022/01/04 12:49:01;;;;;;;3.58;2.80;;;;;;;;;;5055225;28;20220;-53
2022/01/04 12:51:29;;;;;;;2.75;2.55;;;;;;;;;;5055225;28;20291;-53
2022/01/04 12:53:58;;;;;;;2.85;2.55;;;;;;;;;;5055630;28;20204;-53
2022/01/04 12:56:25;;;;;;;2.55;2.35;;;;;;;;;;5055466;28;20306;-53
2022/01/04 12:58:54;;;;;;;2.97;2.67;;;;;;;;;;5055628;28;20201;-53
2022/01/04 13:01:23;;;;;;;2.63;2.42;;;;;;;;;;5055598;28;20197;-53
2022/01/04 13:03:50;;;;;;;2.97;2.67;;;;;;;;;;5055248;28;20246;-53
2022/01/04 13:06:18;;;;;;;2.78;2.53;;;;;;;;;;5056429;28;20723;-53
2022/01/04 13:08:51;;;;;;;2.45;2.25;;;;;;;;;;5055874;28;20205;-53
2022/01/04 13:11:19;;;;;;;2.70;2.50;;;;;;;;;;5055241;28;20224;-53
2022/01/04 13:13:55;;;;;;;2.10;1.90;;;;;;;;;;5054720;28;20204;-53
2022/01/04 13:16:23;;;;;;;2.47;2.28;;;;;;;;;;5055285;28;20235;-53
2022/01/04 13:18:51;;;;;;;2.13;1.98;;;;;;;;;;5055429;28;20216;-53
2022/01/04 13:21:19;;;;;;;2.30;2.10;;;;;;;;;;5054976;28;20205;-53
2022/01/04 13:23:46;;;;;;;2.55;2.35;;;;;;;;;;5055160;28;21195;-53
2022/01/04 13:26:16;;;;;;;2.20;2.00;;;;;;;;;;5045183;28;20198;-53
2022/01/04 13:28:46;;;;;;;2.10;1.90;;;;;;;;;;5034620;28;20212;-53
2022/01/04 13:31:23;;;;;;;2.65;2.13;;;;;;;;;;5050620;28;20205;-53
2022/01/04 13:33:50;;;;;;;2.30;2.10;;;;;;;;;;5014611;28;20202;-53
2022/01/04 13:36:17;;;;;;;2.05;1.92;;;;;;;;;;5014504;28;20238;-53
2022/01/04 13:38:45;;;;;;;1.80;1.70;;;;;;;;;;5015133;28;20198;-53
2022/01/04 13:41:12;;;;;;;2.13;1.92;;;;;;;;;;5015262;28;20206;-53
2022/01/04 13:43:45;;;;;;;1.92;1.83;;;;;;;;;;5014065;28;20237;-53
2022/01/04 13:46:13;;;;;;;1.90;1.80;;;;;;;;;;5014796;28;20269;-53
2022/01/04 13:48:44;;;;;;;2.08;1.80;;;;;;;;;;5015088;28;20586;-53
2022/01/04 13:51:12;;;;;;;1.65;1.55;;;;;;;;;;5014568;28;20206;-53
2022/01/04 13:53:40;;;;;;;1.73;1.63;;;;;;;;;;5014916;28;20698;-53
2022/01/04 13:56:08;;;;;;;1.77;1.67;;;;;;;;;;5014647;28;20217;-53
2022/01/04 13:58:44;;;;;;;2.30;1.60;;;;;;;;;;5045510;28;20205;-53
2022/01/04 14:01:12;;;;;;;1.60;1.50;;;;;;;;;;5059221;28;20196;-54
2022/01/04 14:03:41;;;;;;;1.60;1.50;;;;;;;;;;5068366;28;20197;-53
2022/01/04 14:06:27;;;;;;;1.52;1.42;;;;;;;;;;5062148;28;20497;-53
2022/01/04 14:08:55;;;;;;;1.70;1.60;;;;;;;;;;5055045;28;20209;-53
2022/01/04 14:11:26;;;;;;;1.70;1.60;;;;;;;;;;5054943;28;20204;-53
2022/01/04 14:13:53;;;;;;;1.88;1.50;;;;;;;;;;5054993;28;20205;-53
2022/01/04 14:16:21;;;;;;;1.52;1.42;;;;;;;;;;5055474;28;20616;-53
2022/01/04 14:19:05;;;;;;;1.55;1.45;;;;;;;;;;5054328;28;20205;-53
2022/01/04 14:21:35;;;;;;;1.50;1.40;;;;;;;;;;5054339;28;20215;-53
2022/01/04 14:24:04;;;;;;;1.42;1.33;;;;;;;;;;5054127;28;20205;-53
2022/01/04 14:26:32;;;;;;;1.40;1.30;;;;;;;;;;5054326;28;20605;-53
2022/01/04 14:29:01;;;;;;;1.50;1.40;;;;;;;;;;5054485;28;20205;-53
2022/01/04 14:31:29;;;;;;;1.42;1.33;;;;;;;;;;5055180;28;20535;-53
2022/01/04 14:33:56;;;;;;;1.27;1.13;;;;;;;;;;5054139;28;20201;-53
2022/01/04 14:36:23;;;;;;;1.45;1.35;;;;;;;;;;5053249;28;20319;-53
2022/01/04 14:38:52;;;;;;;1.40;1.30;;;;;;;;;;5054116;28;20215;-53
2022/01/04 14:41:20;;;;;;;1.40;1.30;;;;;;;;;;5053368;28;20201;-53
2022/01/04 14:43:47;;;;;;;1.30;1.20;;;;;;;;;;5053857;28;20481;-53
2022/01/04 14:46:14;;;;;;;1.40;1.30;;;;;;;;;;5052773;28;20215;-53
2022/01/04 14:48:42;;;;;;;1.40;1.30;;;;;;;;;;5053342;28;20201;-53
2022/01/04 14:51:09;;;;;;;1.48;1.38;;;;;;;;;;5052444;28;20208;-53
2022/01/04 14:53:37;;;;;;;1.30;1.10;;;;;;;;;;5052443;28;20205;-53
2022/01/04 14:56:07;;;;;;;1.33;1.08;;;;;;;;;;5056710;28;20450;-53
2022/01/04 14:58:35;;;;;;;0.95;0.93;;;;;;;;;;5057136;28;20228;-53
2022/01/04 15:01:02;;;;;;;1.00;1.00;;;;;;;;;;5057240;28;20490;-53